Time;durP1;ratioP1;P1;durP2;ratioP2;P2;SDS_P1;SDS_P2;PMS_P1;PMS_P2;Temp;Humidity;BMP_temperature;BMP_pressure;BME280_temperature;BME280_humidity;BME280_pressure;Samples;Min_cycle;Max_cycle;Signal;HPM_P1;HPM_P2
2021/11/24 00:01:15;;;;;;;3.15;2.92;;;8.20;99.90;;;;;;4156266;28;20099;-44
2021/11/24 00:03:17;;;;;;;3.75;3.65;;;8.20;99.90;;;;;;4151483;28;20045;-45
2021/11/24 00:05:19;;;;;;;3.25;3.15;;;8.20;99.90;;;;;;4157234;28;20046;-46
2021/11/24 00:07:21;;;;;;;8.32;3.13;;;8.20;99.90;;;;;;4153157;28;20476;-44
2021/11/24 00:09:24;;;;;;;4.30;4.10;;;8.20;99.90;;;;;;4153254;28;20041;-44
2021/11/24 00:11:27;;;;;;;2.75;2.65;;;8.20;99.90;;;;;;4156894;28;20061;-44
2021/11/24 00:13:29;;;;;;;2.83;2.78;;;8.10;99.90;;;;;;4157000;28;20072;-45
2021/11/24 00:15:32;;;;;;;4.38;4.18;;;8.10;99.90;;;;;;4158977;28;20052;-44
2021/11/24 00:17:35;;;;;;;2.78;2.67;;;8.10;99.90;;;;;;4161973;28;20041;-44
2021/11/24 00:19:37;;;;;;;4.22;3.80;;;8.10;99.90;;;;;;4159066;28;20061;-44
2021/11/24 00:21:39;;;;;;;3.40;3.20;;;8.10;99.90;;;;;;4159997;28;20124;-44
2021/11/24 00:23:41;;;;;;;2.45;2.42;;;8.10;99.90;;;;;;4152262;28;20571;-44
2021/11/24 00:25:43;;;;;;;2.88;2.78;;;8.10;99.90;;;;;;4160681;28;20081;-45
2021/11/24 00:27:47;;;;;;;3.00;2.90;;;8.00;99.90;;;;;;4160640;28;20049;-44
2021/11/24 00:29:49;;;;;;;2.70;2.60;;;8.00;99.90;;;;;;4156112;28;20517;-45
2021/11/24 00:31:51;;;;;;;2.63;2.53;;;8.00;99.90;;;;;;4147796;28;20520;-44
2021/11/24 00:33:54;;;;;;;2.47;2.38;;;8.00;99.90;;;;;;4160844;28;20135;-44
2021/11/24 00:35:56;;;;;;;3.63;2.95;;;8.00;99.90;;;;;;4161499;28;20124;-46
2021/11/24 00:37:58;;;;;;;2.80;2.70;;;8.00;99.90;;;;;;4160984;28;20097;-44
2021/11/24 00:40:01;;;;;;;2.15;2.10;;;8.00;99.90;;;;;;4159026;28;20050;-45
2021/11/24 00:42:03;;;;;;;2.22;2.13;;;7.90;99.90;;;;;;4159859;28;20104;-46
2021/11/24 00:44:06;;;;;;;2.88;2.78;;;7.90;99.90;;;;;;4160795;28;20066;-46
2021/11/24 00:46:08;;;;;;;2.92;2.92;;;7.90;99.90;;;;;;4159524;28;20545;-44
2021/11/24 00:48:10;;;;;;;2.92;2.72;;;7.90;99.90;;;;;;4158755;28;20068;-45
2021/11/24 00:50:12;;;;;;;3.05;2.85;;;7.90;99.90;;;;;;4156942;28;20080;-44
2021/11/24 00:52:14;;;;;;;2.38;2.38;;;7.90;99.90;;;;;;4151709;28;20042;-45
2021/11/24 00:54:17;;;;;;;3.15;3.05;;;7.90;99.90;;;;;;4159445;28;20060;-46
2021/11/24 00:56:19;;;;;;;;;;;7.90;99.90;;;;;;4153194;28;20157;-44
2021/11/24 00:58:21;;;;;;;2.78;2.67;;;8.00;99.90;;;;;;4155457;28;19925;-44
2021/11/24 01:00:23;;;;;;;3.28;3.17;;;8.00;99.90;;;;;;4159409;28;20045;-44
2021/11/24 01:02:25;;;;;;;3.08;2.97;;;7.90;99.90;;;;;;4155520;28;20080;-46
2021/11/24 01:04:27;;;;;;;2.80;2.70;;;7.90;99.90;;;;;;4154908;28;20033;-46
2021/11/24 01:06:29;;;;;;;3.58;3.47;;;7.90;99.90;;;;;;4159721;28;20072;-45
2021/11/24 01:08:31;;;;;;;3.53;3.42;;;7.90;99.90;;;;;;4162112;28;20073;-44
2021/11/24 01:10:33;;;;;;;3.28;3.17;;;7.80;99.90;;;;;;4157849;28;20069;-44
2021/11/24 01:12:37;;;;;;;2.70;2.60;;;7.70;99.90;;;;;;4160950;28;20046;-44
2021/11/24 01:14:39;;;;;;;4.70;2.35;;;7.70;99.90;;;;;;4159547;28;20046;-45
2021/11/24 01:16:42;;;;;;;3.22;3.10;;;7.70;99.90;;;;;;4162550;28;20041;-45
2021/11/24 01:18:44;;;;;;;3.33;3.03;;;7.70;99.90;;;;;;4160327;28;20092;-45
2021/11/24 01:20:46;;;;;;;3.45;3.35;;;7.60;99.90;;;;;;4158195;28;20561;-44
2021/11/24 01:22:49;;;;;;;3.83;3.72;;;7.60;99.90;;;;;;4159256;28;20052;-44
2021/11/24 01:24:51;;;;;;;4.22;4.03;;;7.60;99.90;;;;;;4160710;28;20076;-44
2021/11/24 01:26:53;;;;;;;3.97;3.78;;;7.60;99.90;;;;;;4160097;28;20044;-44
2021/11/24 01:28:55;;;;;;;4.07;3.90;;;7.50;99.90;;;;;;4157805;28;20092;-43
2021/11/24 01:30:57;;;;;;;4.43;4.22;;;7.40;99.90;;;;;;4161459;28;20073;-45
2021/11/24 01:32:59;;;;;;;;;;;7.30;99.90;;;;;;4163708;28;20042;-45
2021/11/24 01:35:02;;;;;;;4.70;4.60;;;7.30;99.90;;;;;;4156323;28;19925;-45
2021/11/24 01:37:04;;;;;;;4.43;4.05;;;7.20;99.90;;;;;;4153884;28;20180;-45
2021/11/24 01:39:06;;;;;;;3.33;3.17;;;7.30;99.90;;;;;;4156555;28;20071;-46
2021/11/24 01:41:08;;;;;;;3.45;3.35;;;7.40;99.90;;;;;;4156692;28;20108;-44
2021/11/24 01:43:10;;;;;;;3.13;3.03;;;7.40;99.90;;;;;;4155007;28;20069;-45
2021/11/24 01:45:16;;;;;;;3.20;3.10;;;7.40;99.90;;;;;;4163288;28;20049;-45
2021/11/24 01:47:18;;;;;;;4.68;4.35;;;7.40;99.90;;;;;;4162262;28;20065;-45
2021/11/24 01:49:23;;;;;;;5.38;4.82;;;7.30;99.90;;;;;;4160139;28;20061;-45
2021/11/24 01:51:25;;;;;;;5.05;4.75;;;7.30;99.90;;;;;;4155154;28;20370;-45
2021/11/24 01:53:28;;;;;;;5.30;5.10;;;7.20;99.90;;;;;;4163590;28;20429;-45
2021/11/24 01:55:31;;;;;;;4.57;4.47;;;7.10;99.90;;;;;;4154598;28;20065;-45
2021/11/24 01:57:33;;;;;;;5.13;4.93;;;6.90;99.90;;;;;;4161563;28;20064;-44
2021/11/24 01:59:35;;;;;;;5.15;4.95;;;6.90;99.90;;;;;;4158190;28;20072;-44
2021/11/24 02:01:39;;;;;;;4.07;3.97;;;6.90;99.90;;;;;;4163484;28;20072;-45
2021/11/24 02:03:41;;;;;;;3.45;3.22;;;6.80;99.90;;;;;;4161757;28;20052;-44
2021/11/24 02:05:43;;;;;;;4.93;4.55;;;6.80;99.90;;;;;;4163570;28;20088;-47
2021/11/24 02:07:45;;;;;;;2.92;2.83;;;6.70;99.90;;;;;;4161861;28;20451;-45
2021/11/24 02:09:47;;;;;;;5.25;4.97;;;6.70;99.90;;;;;;4160461;28;20073;-45
2021/11/24 02:11:50;;;;;;;4.47;4.38;;;6.60;99.90;;;;;;4164247;28;20049;-45
2021/11/24 02:13:52;;;;;;;5.60;5.30;;;6.60;99.90;;;;;;4156978;28;20042;-44
2021/11/24 02:15:54;;;;;;;5.00;4.80;;;6.60;99.90;;;;;;4151888;28;20034;-47
2021/11/24 02:18:02;;;;;;;4.93;4.72;;;6.60;99.90;;;;;;4162055;28;20076;-49
2021/11/24 02:20:05;;;;;;;4.18;4.07;;;6.60;99.90;;;;;;4160990;28;20045;-47
2021/11/24 02:22:08;;;;;;;4.60;4.32;;;6.60;99.90;;;;;;4161971;28;20497;-48
2021/11/24 02:24:10;;;;;;;4.47;4.20;;;6.70;99.90;;;;;;4152716;28;20092;-47
2021/11/24 02:26:12;;;;;;;4.35;4.25;;;6.70;99.90;;;;;;4161992;28;20694;-48
2021/11/24 02:28:16;;;;;;;4.43;4.22;;;6.80;99.90;;;;;;4161608;28;20088;-48
2021/11/24 02:30:18;;;;;;;3.80;3.60;;;6.90;99.90;;;;;;4163668;28;20124;-48
2021/11/24 02:32:20;;;;;;;4.10;4.00;;;6.90;99.90;;;;;;4158531;28;20662;-45
2021/11/24 02:34:22;;;;;;;6.70;6.00;;;6.90;99.90;;;;;;4160901;28;20053;-48
2021/11/24 02:36:26;;;;;;;3.83;3.72;;;6.80;99.90;;;;;;4152780;28;20042;-46
2021/11/24 02:38:28;;;;;;;4.15;3.97;;;6.70;99.90;;;;;;4161447;28;20461;-46
2021/11/24 02:40:32;;;;;;;4.55;3.92;;;6.70;99.90;;;;;;4158024;28;20113;-48
2021/11/24 02:42:38;;;;;;;4.30;4.20;;;6.70;99.90;;;;;;4161847;28;20065;-48
2021/11/24 02:44:40;;;;;;;3.75;3.45;;;6.60;99.90;;;;;;4162324;28;20080;-48
2021/11/24 02:46:43;;;;;;;4.45;4.15;;;6.60;99.90;;;;;;4162422;28;20128;-48
2021/11/24 02:48:45;;;;;;;4.15;4.05;;;6.60;99.90;;;;;;4156869;28;20065;-47
2021/11/24 02:50:47;;;;;;;4.97;4.63;;;6.70;99.90;;;;;;4158934;28;20057;-45
2021/11/24 02:52:49;;;;;;;4.47;4.38;;;6.80;99.90;;;;;;4163272;28;20132;-47
2021/11/24 02:54:55;;;;;;;6.03;5.82;;;6.60;99.90;;;;;;4161366;28;20700;-49
2021/11/24 02:57:02;;;;;;;5.13;4.90;;;6.50;99.90;;;;;;4147775;28;20080;-48
2021/11/24 02:59:04;;;;;;;5.25;5.05;;;6.40;99.90;;;;;;4159586;28;20041;-47
2021/11/24 03:01:06;;;;;;;4.13;4.03;;;6.30;99.90;;;;;;4161088;28;20072;-46
2021/11/24 03:03:08;;;;;;;4.80;4.68;;;6.30;99.90;;;;;;4160529;28;20049;-47
2021/11/24 03:05:11;;;;;;;5.57;5.20;;;6.30;99.90;;;;;;4161539;28;20124;-45
2021/11/24 03:07:13;;;;;;;4.63;4.43;;;6.10;99.90;;;;;;4161315;28;20041;-49
2021/11/24 03:09:15;;;;;;;5.35;5.05;;;6.00;99.90;;;;;;4150569;28;20438;-47
2021/11/24 03:11:17;;;;;;;5.03;4.82;;;6.00;99.90;;;;;;4161267;28;20069;-49
2021/11/24 03:13:20;;;;;;;6.30;5.85;;;6.00;99.90;;;;;;4164026;28;20045;-47
2021/11/24 03:15:22;;;;;;;4.95;4.75;;;6.00;99.90;;;;;;4160814;28;20045;-49
2021/11/24 03:17:24;;;;;;;5.88;5.57;;;6.00;99.90;;;;;;4163283;28;20069;-48
2021/11/24 03:19:26;;;;;;;4.90;4.78;;;5.90;99.90;;;;;;4158830;28;20037;-48
2021/11/24 03:21:28;;;;;;;5.53;5.25;;;5.90;99.90;;;;;;4150330;28;20062;-48
2021/11/24 03:23:30;;;;;;;4.13;4.03;;;5.80;99.90;;;;;;4159126;28;20033;-48
2021/11/24 03:25:32;;;;;;;4.43;4.22;;;5.80;99.90;;;;;;4148635;28;20042;-49
2021/11/24 03:27:36;;;;;;;4.38;4.00;;;5.80;99.90;;;;;;4158422;28;20049;-48
2021/11/24 03:29:38;;;;;;;4.10;4.00;;;5.80;99.90;;;;;;4162753;28;20041;-48
2021/11/24 03:31:40;;;;;;;5.15;4.80;;;5.80;99.90;;;;;;4158684;28;20076;-48
2021/11/24 03:33:42;;;;;;;4.38;4.28;;;5.80;99.90;;;;;;4148970;28;20429;-44
2021/11/24 03:35:45;;;;;;;3.83;3.72;;;5.70;99.90;;;;;;4151372;28;20041;-44
2021/11/24 03:37:50;;;;;;;4.90;4.75;;;5.80;99.90;;;;;;4161971;28;20037;-44
2021/11/24 03:39:52;;;;;;;5.10;4.78;;;5.70;99.90;;;;;;4157830;28;20595;-44
2021/11/24 03:41:54;;;;;;;3.90;3.80;;;5.70;99.90;;;;;;4158233;28;20034;-44
2021/11/24 03:43:56;;;;;;;5.32;5.13;;;5.70;99.90;;;;;;4154900;28;20112;-45
2021/11/24 03:45:59;;;;;;;5.00;4.90;;;5.70;99.90;;;;;;4158598;28;20065;-43
2021/11/24 03:48:05;;;;;;;5.05;4.95;;;5.60;99.90;;;;;;4152122;28;20132;-44
2021/11/24 03:50:08;;;;;;;4.53;4.43;;;5.60;99.90;;;;;;4159685;28;20846;-43
2021/11/24 03:52:17;;;;;;;4.95;4.82;;;5.50;99.90;;;;;;4153429;28;20045;-45
2021/11/24 03:54:27;;;;;;;5.55;5.45;;;5.40;99.90;;;;;;4129303;28;20046;-44
2021/11/24 03:56:29;;;;;;;5.93;5.63;;;5.40;99.90;;;;;;4159478;28;20072;-44
2021/11/24 03:58:32;;;;;;;6.22;5.80;;;5.30;99.90;;;;;;4159788;28;20061;-43
2021/11/24 04:00:35;;;;;;;4.97;4.78;;;5.30;99.90;;;;;;4157494;28;20048;-44
2021/11/24 04:02:38;;;;;;;5.05;4.95;;;5.30;99.90;;;;;;4162398;28;20061;-44
2021/11/24 04:04:40;;;;;;;;;;;5.20;99.90;;;;;;4158648;28;20045;-46
2021/11/24 04:06:42;;;;;;;4.63;4.53;;;5.30;99.90;;;;;;4162099;28;19924;-43
2021/11/24 04:08:44;;;;;;;5.07;4.60;;;5.30;99.90;;;;;;4159281;28;20068;-45
2021/11/24 04:10:47;;;;;;;5.43;5.13;;;5.30;99.90;;;;;;4162063;28;20042;-44
2021/11/24 04:12:49;;;;;;;6.00;5.90;;;5.30;99.90;;;;;;4159598;28;20040;-44
2021/11/24 04:14:51;;;;;;;6.78;6.30;;;5.30;99.90;;;;;;4155144;28;20358;-44
2021/11/24 04:16:53;;;;;;;6.35;6.10;;;5.20;99.90;;;;;;4159450;28;20136;-46
2021/11/24 04:18:55;;;;;;;5.38;5.28;;;5.20;99.90;;;;;;4158228;28;20065;-44
2021/11/24 04:20:57;;;;;;;6.72;6.47;;;5.30;99.90;;;;;;4159159;28;20041;-43
2021/11/24 04:22:59;;;;;;;6.25;6.05;;;5.20;99.90;;;;;;4159497;28;20038;-45
2021/11/24 04:25:02;;;;;;;4.10;4.00;;;5.20;99.90;;;;;;4161134;28;20061;-44
2021/11/24 04:27:04;;;;;;;5.10;5.00;;;5.30;99.90;;;;;;4154823;28;20468;-43
2021/11/24 04:29:06;;;;;;;7.18;6.53;;;5.30;99.90;;;;;;4149932;28;20504;-46
2021/11/24 04:31:09;;;;;;;5.97;5.78;;;5.30;99.90;;;;;;4158355;28;20053;-44
2021/11/24 04:33:11;;;;;;;5.80;5.43;;;5.20;99.90;;;;;;4159614;28;20401;-43
2021/11/24 04:35:14;;;;;;;6.45;6.13;;;5.20;99.90;;;;;;4161807;28;20231;-45
2021/11/24 04:37:16;;;;;;;7.22;6.90;;;5.10;99.90;;;;;;4160089;28;20122;-43
2021/11/24 04:39:18;;;;;;;7.63;7.20;;;5.10;99.90;;;;;;4157217;28;20042;-43
2021/11/24 04:41:20;;;;;;;7.47;7.00;;;5.00;99.90;;;;;;4152371;28;20057;-44
2021/11/24 04:43:27;;;;;;;5.80;5.70;;;4.90;99.90;;;;;;4159780;28;20124;-45
2021/11/24 04:45:29;;;;;;;6.05;5.78;;;4.90;99.90;;;;;;4147634;28;20421;-44
2021/11/24 04:47:32;;;;;;;7.18;6.75;;;4.80;99.90;;;;;;4159370;28;20033;-44
2021/11/24 04:49:34;;;;;;;7.85;7.50;;;4.70;99.90;;;;;;4159368;28;20049;-44
2021/11/24 04:51:36;;;;;;;6.25;5.95;;;4.80;99.90;;;;;;4158293;28;20167;-45
2021/11/24 04:53:38;;;;;;;6.88;6.65;;;4.80;99.90;;;;;;4147603;28;20756;-43
2021/11/24 04:55:40;;;;;;;6.63;6.50;;;4.70;99.90;;;;;;4156777;28;20045;-44
2021/11/24 04:57:42;;;;;;;6.22;5.93;;;4.70;99.90;;;;;;4148733;28;20069;-44
2021/11/24 04:59:45;;;;;;;6.07;5.90;;;4.70;99.90;;;;;;4158013;28;20057;-43
2021/11/24 05:01:47;;;;;;;6.05;5.72;;;4.60;99.90;;;;;;4153271;28;20068;-44
2021/11/24 05:03:50;;;;;;;5.72;5.63;;;4.60;99.90;;;;;;4159806;28;20041;-44
2021/11/24 05:05:52;;;;;;;7.28;6.85;;;4.70;99.90;;;;;;4159609;28;20057;-45
2021/11/24 05:07:55;;;;;;;8.43;7.72;;;4.60;99.90;;;;;;4157131;28;20041;-44
2021/11/24 05:09:57;;;;;;;8.57;8.10;;;4.50;99.90;;;;;;4145673;28;20042;-44
2021/11/24 05:11:59;;;;;;;9.85;9.43;;;4.50;99.90;;;;;;4157766;28;20040;-44
2021/11/24 05:14:03;;;;;;;8.98;8.70;;;4.40;99.90;;;;;;4151256;28;20054;-44
2021/11/24 05:16:06;;;;;;;8.88;8.68;;;4.40;99.90;;;;;;4159571;28;20045;-43
2021/11/24 05:18:17;;;;;;;8.82;8.52;;;4.30;99.90;;;;;;4156116;28;20029;-45
2021/11/24 05:20:22;;;;;;;8.35;8.07;;;4.30;99.90;;;;;;4159568;28;20069;-44
2021/11/24 05:22:24;;;;;;;6.57;6.47;;;4.40;99.90;;;;;;4147743;28;20080;-44
2021/11/24 05:24:27;;;;;;;7.15;6.85;;;4.30;99.90;;;;;;4156924;28;20605;-45
2021/11/24 05:26:30;;;;;;;6.20;6.10;;;4.30;99.90;;;;;;4159487;28;20030;-44
2021/11/24 05:28:35;;;;;;;7.03;6.85;;;4.30;99.90;;;;;;4157120;28;20053;-43
2021/11/24 05:30:37;;;;;;;6.47;6.35;;;4.30;99.90;;;;;;4160475;28;20781;-43
2021/11/24 05:32:39;;;;;;;6.53;6.43;;;4.30;99.90;;;;;;4158510;28;20406;-44
2021/11/24 05:34:42;;;;;;;5.97;5.60;;;4.30;99.90;;;;;;4146868;28;20049;-44
2021/11/24 05:36:44;;;;;;;6.95;6.55;;;4.20;99.90;;;;;;4155095;28;20052;-43
2021/11/24 05:38:46;;;;;;;7.28;7.05;;;4.20;99.90;;;;;;4152941;28;20069;-44
2021/11/24 05:40:48;;;;;;;8.45;7.78;;;4.10;99.90;;;;;;4155616;28;20103;-44
2021/11/24 05:42:51;;;;;;;7.10;6.70;;;4.10;99.90;;;;;;4160490;28;20049;-45
2021/11/24 05:45:02;;;;;;;7.80;7.60;;;4.00;99.90;;;;;;4154977;28;20042;-44
2021/11/24 05:47:11;;;;;;;6.80;6.60;;;4.00;99.90;;;;;;4160241;28;20056;-44
2021/11/24 05:49:27;;;;;;;7.20;6.93;;;3.90;99.90;;;;;;4156410;28;20034;-45
2021/11/24 05:51:29;;;;;;;7.38;6.85;;;3.90;99.90;;;;;;4151700;28;20069;-43
2021/11/24 05:53:31;;;;;;;7.30;7.00;;;3.80;99.90;;;;;;4154809;28;20336;-45
2021/11/24 05:55:33;;;;;;;;;;;3.90;99.90;;;;;;4161408;28;20069;-44
2021/11/24 05:57:35;;;;;;;8.65;8.13;;;3.80;99.90;;;;;;4158153;28;19967;-45
2021/11/24 05:59:37;;;;;;;10.63;10.05;;;3.80;99.90;;;;;;4160376;28;20409;-43
2021/11/24 06:01:40;;;;;;;8.10;7.68;;;3.70;99.90;;;;;;4157466;28;20069;-44
2021/11/24 06:03:42;;;;;;;9.13;8.70;;;3.70;99.90;;;;;;4161135;28;20049;-44
2021/11/24 06:05:45;;;;;;;9.63;9.10;;;3.70;99.90;;;;;;4158413;28;20486;-45
2021/11/24 06:07:47;;;;;;;9.20;8.43;;;3.80;99.90;;;;;;4163696;28;20049;-44
2021/11/24 06:09:50;;;;;;;7.72;7.50;;;3.80;99.90;;;;;;4160689;28;20037;-45
2021/11/24 06:11:52;;;;;;;7.90;7.70;;;3.80;99.90;;;;;;4164283;28;20529;-45
2021/11/24 06:13:54;;;;;;;8.48;8.35;;;3.80;99.90;;;;;;4162527;28;20125;-45
2021/11/24 06:15:56;;;;;;;8.85;8.63;;;3.80;99.90;;;;;;4162616;28;20128;-44
2021/11/24 06:17:58;;;;;;;9.15;8.85;;;3.70;99.90;;;;;;4156254;28;20458;-45
2021/11/24 06:20:00;;;;;;;9.82;9.35;;;3.70;99.90;;;;;;4160116;28;20030;-44
2021/11/24 06:22:03;;;;;;;10.43;9.85;;;3.70;99.90;;;;;;4156434;28;20068;-46
2021/11/24 06:24:06;;;;;;;6.80;6.40;;;3.70;99.90;;;;;;4163968;28;20080;-45
2021/11/24 06:26:08;;;;;;;11.45;10.70;;;3.70;99.90;;;;;;4160905;28;20450;-45
2021/11/24 06:28:12;;;;;;;;;;;3.70;99.90;;;;;;4164396;28;20046;-45
2021/11/24 06:30:17;;;;;;;7.88;7.47;;;3.60;99.90;;;;;;4155276;28;19960;-48
2021/11/24 06:32:19;;;;;;;10.68;9.75;;;3.60;99.90;;;;;;4163016;28;20037;-50
2021/11/24 06:34:21;;;;;;;9.95;9.40;;;3.60;99.90;;;;;;4161470;28;20072;-47
2021/11/24 06:36:29;;;;;;;11.57;11.20;;;3.60;99.90;;;;;;4162171;28;20741;-46
2021/11/24 06:38:31;;;;;;;15.82;14.70;;;3.50;99.90;;;;;;4162220;28;20144;-46
2021/11/24 06:40:33;;;;;;;13.80;13.02;;;3.50;99.90;;;;;;4159741;28;20043;-46
2021/11/24 06:42:36;;;;;;;15.10;13.70;;;3.50;99.90;;;;;;4161063;28;20084;-47
2021/11/24 06:44:38;;;;;;;11.95;11.02;;;3.40;99.90;;;;;;4163563;28;20038;-47
2021/11/24 06:46:40;;;;;;;11.80;11.40;;;3.40;99.90;;;;;;4161819;28;20044;-48
2021/11/24 06:48:42;;;;;;;15.55;14.38;;;3.40;99.90;;;;;;4158698;28;20072;-47
2021/11/24 06:50:44;;;;;;;16.40;14.88;;;3.40;99.90;;;;;;4153965;28;20049;-47
2021/11/24 06:52:46;;;;;;;23.60;21.58;;;3.40;99.90;;;;;;4162123;28;20493;-47
2021/11/24 06:54:48;;;;;;;25.52;22.98;;;3.30;99.90;;;;;;4161024;28;20061;-47
2021/11/24 06:56:50;;;;;;;17.45;16.25;;;3.30;99.90;;;;;;4162119;28;20071;-46
2021/11/24 06:58:52;;;;;;;12.75;12.38;;;3.30;99.90;;;;;;4160553;28;20048;-47
2021/11/24 07:00:55;;;;;;;11.57;11.27;;;3.30;99.90;;;;;;4162290;28;20603;-50
2021/11/24 07:02:57;;;;;;;13.23;12.48;;;3.40;99.90;;;;;;4162151;28;20111;-50
2021/11/24 07:04:59;;;;;;;11.75;11.02;;;3.50;99.90;;;;;;4162737;28;20425;-50
2021/11/24 07:07:02;;;;;;;10.57;10.30;;;3.50;99.90;;;;;;4160331;28;20062;-51
2021/11/24 07:09:04;;;;;;;13.95;13.30;;;3.50;99.90;;;;;;4160495;28;20552;-50
2021/11/24 07:11:06;;;;;;;14.65;14.05;;;3.50;99.90;;;;;;4162112;28;20967;-49
2021/11/24 07:13:08;;;;;;;11.60;11.00;;;3.60;99.90;;;;;;4161390;28;20041;-50
2021/11/24 07:15:10;;;;;;;12.98;12.32;;;3.60;99.90;;;;;;4159719;28;20049;-48
2021/11/24 07:17:12;;;;;;;22.30;18.75;;;3.50;99.90;;;;;;4161553;28;20072;-50
2021/11/24 07:19:16;;;;;;;12.70;12.02;;;3.50;99.90;;;;;;4161922;28;20393;-51
2021/11/24 07:21:18;;;;;;;10.68;10.07;;;3.50;99.90;;;;;;4160116;28;20053;-51
2021/11/24 07:23:20;;;;;;;13.15;12.40;;;3.50;99.90;;;;;;4162585;28;20041;-48
2021/11/24 07:25:23;;;;;;;16.63;15.45;;;3.50;99.90;;;;;;4159721;28;20072;-50
2021/11/24 07:27:25;;;;;;;53.13;33.58;;;3.50;99.90;;;;;;4163808;28;20426;-49
2021/11/24 07:29:27;;;;;;;38.78;27.60;;;3.40;99.90;;;;;;4160129;28;20036;-50
2021/11/24 07:31:29;;;;;;;17.02;15.85;;;3.40;99.90;;;;;;4149840;28;20087;-49
2021/11/24 07:33:31;;;;;;;11.35;10.80;;;3.50;99.90;;;;;;4159387;28;20048;-49
2021/11/24 07:35:33;;;;;;;9.15;8.82;;;3.60;99.90;;;;;;4152916;28;20069;-48
2021/11/24 07:37:35;;;;;;;7.82;7.53;;;3.60;99.90;;;;;;4157422;28;20621;-51
2021/11/24 07:39:37;;;;;;;7.47;7.28;;;3.70;99.90;;;;;;4163166;28;20385;-50
2021/11/24 07:41:39;;;;;;;7.15;6.65;;;3.80;99.90;;;;;;4157238;28;20065;-50
2021/11/24 07:43:41;;;;;;;7.32;6.82;;;3.80;99.90;;;;;;4163085;28;20068;-50
2021/11/24 07:45:44;;;;;;;9.63;9.23;;;4.00;99.90;;;;;;4160807;28;20042;-50
2021/11/24 07:47:46;;;;;;;9.18;8.57;;;4.10;99.90;;;;;;4162672;28;20107;-50
2021/11/24 07:49:48;;;;;;;9.77;9.35;;;4.10;99.90;;;;;;4160711;28;20535;-50
2021/11/24 07:51:50;;;;;;;10.55;9.90;;;4.20;99.90;;;;;;4161804;28;20042;-51
2021/11/24 07:53:53;;;;;;;9.02;7.80;;;4.20;99.90;;;;;;4160440;28;20037;-49
2021/11/24 07:55:55;;;;;;;9.85;9.32;;;4.20;99.90;;;;;;4162935;28;20053;-50
2021/11/24 07:57:57;;;;;;;9.63;8.70;;;4.20;99.90;;;;;;4160699;28;20068;-51
2021/11/24 07:59:59;;;;;;;8.40;8.02;;;4.30;99.90;;;;;;4162051;28;20508;-51
2021/11/24 08:02:01;;;;;;;7.57;7.38;;;4.30;99.90;;;;;;4159067;28;20038;-50
2021/11/24 08:04:03;;;;;;;6.07;5.80;;;4.30;99.90;;;;;;4161790;28;20516;-51
2021/11/24 08:06:06;;;;;;;7.60;7.35;;;4.40;99.90;;;;;;4158924;28;20592;-51
2021/11/24 08:08:08;;;;;;;8.23;7.93;;;4.40;99.90;;;;;;4161494;28;20124;-47
2021/11/24 08:10:12;;;;;;;9.00;8.35;;;4.50;99.90;;;;;;4158042;28;20041;-46
2021/11/24 08:12:14;;;;;;;8.68;7.97;;;4.50;99.90;;;;;;4154692;28;20037;-46
2021/11/24 08:14:16;;;;;;;8.55;8.30;;;4.50;99.90;;;;;;4158956;28;20152;-47
2021/11/24 08:16:18;;;;;;;8.57;8.02;;;4.60;99.90;;;;;;4162087;28;20128;-46
2021/11/24 08:18:20;;;;;;;7.63;7.18;;;4.60;99.90;;;;;;4158506;28;20045;-47
2021/11/24 08:20:22;;;;;;;6.38;6.07;;;4.70;99.90;;;;;;4161681;28;20041;-46
2021/11/24 08:22:24;;;;;;;7.22;6.90;;;4.90;99.90;;;;;;4159077;28;20044;-49
2021/11/24 08:24:28;;;;;;;6.80;6.38;;;4.90;99.90;;;;;;4162141;28;20432;-46
2021/11/24 08:26:30;;;;;;;8.05;7.75;;;5.00;99.90;;;;;;4158609;28;20500;-47
2021/11/24 08:28:32;;;;;;;;;;;5.10;99.90;;;;;;4162709;28;20132;-48
2021/11/24 08:30:37;;;;;;;8.07;7.38;;;5.20;99.90;;;;;;4160530;28;20328;-46
2021/11/24 08:32:39;;;;;;;;;;;5.20;99.90;;;;;;4161569;28;20068;-47
2021/11/24 08:34:41;;;;;;;6.57;6.38;;;5.30;99.90;;;;;;4160322;28;19929;-47
2021/11/24 08:36:43;;;;;;;7.53;7.22;;;5.40;99.90;;;;;;4160630;28;20041;-46
2021/11/24 08:38:45;;;;;;;8.05;7.60;;;5.50;99.90;;;;;;4158339;28;20064;-46
2021/11/24 08:40:48;;;;;;;8.02;7.60;;;5.60;99.90;;;;;;4160584;28;20037;-46
2021/11/24 08:42:50;;;;;;;6.20;6.10;;;5.60;99.90;;;;;;4159761;28;20037;-47
2021/11/24 08:44:53;;;;;;;7.18;6.88;;;5.80;99.90;;;;;;4161647;28;20037;-46
2021/11/24 08:46:55;;;;;;;6.22;5.82;;;6.00;99.90;;;;;;4159772;28;20065;-47
2021/11/24 08:48:57;;;;;;;6.88;6.20;;;6.00;99.90;;;;;;4161531;28;20136;-46
2021/11/24 08:51:00;;;;;;;8.27;7.63;;;6.10;99.90;;;;;;4161005;28;20048;-46
2021/11/24 08:53:02;;;;;;;;;;;6.10;99.90;;;;;;4162093;28;20096;-48
2021/11/24 08:55:05;;;;;;;7.30;6.88;;;6.20;99.90;;;;;;4160029;28;20012;-47
2021/11/24 08:57:08;;;;;;;9.85;7.20;;;6.30;99.90;;;;;;4159711;28;20041;-47
2021/11/24 08:59:11;;;;;;;10.07;9.23;;;6.50;99.90;;;;;;4160131;28;20029;-46
2021/11/24 09:01:13;;;;;;;14.52;12.23;;;6.50;99.90;;;;;;4160235;28;20065;-47
2021/11/24 09:03:16;;;;;;;17.55;12.18;;;6.80;99.90;;;;;;4161184;28;20533;-48
2021/11/24 09:05:19;;;;;;;12.25;11.13;;;7.00;99.90;;;;;;4160259;28;20048;-49
2021/11/24 09:07:21;;;;;;;13.35;9.27;;;6.90;99.90;;;;;;4160337;28;20132;-47
2021/11/24 09:09:22;;;;;;;8.73;7.90;;;7.10;99.90;;;;;;4159243;28;20141;-46
2021/11/24 09:11:25;;;;;;;9.63;7.43;;;7.10;99.90;;;;;;4150036;28;20069;-47
2021/11/24 09:13:27;;;;;;;8.65;7.97;;;7.10;99.90;;;;;;4160075;28;20038;-47
2021/11/24 09:15:29;;;;;;;7.38;6.97;;;7.20;99.90;;;;;;4160522;28;20041;-48
2021/11/24 09:17:48;;;;;;;6.85;6.35;;;7.30;99.90;;;;;;4158322;28;20636;-48
2021/11/24 09:19:50;;;;;;;8.40;7.15;;;7.40;99.90;;;;;;4147985;28;20034;-47
2021/11/24 09:22:10;;;;;;;5.40;5.20;;;7.50;99.90;;;;;;4159510;28;20033;-49
2021/11/24 09:24:15;;;;;;;5.10;4.68;;;7.70;99.90;;;;;;4160591;28;20045;-48
2021/11/24 09:26:25;;;;;;;6.93;6.35;;;7.90;99.90;;;;;;4160334;28;20069;-47
2021/11/24 09:28:34;;;;;;;6.05;5.65;;;8.00;99.90;;;;;;4159821;28;20120;-48
2021/11/24 09:30:38;;;;;;;6.68;6.03;;;8.10;99.90;;;;;;4160409;28;20034;-47
2021/11/24 09:32:41;;;;;;;6.65;5.82;;;8.20;99.90;;;;;;4158945;28;20050;-46
2021/11/24 09:34:43;;;;;;;4.72;4.40;;;8.30;99.90;;;;;;4161408;28;20048;-47
2021/11/24 09:36:45;;;;;;;4.72;4.40;;;8.40;99.90;;;;;;4159261;28;20034;-47
2021/11/24 09:38:47;;;;;;;4.43;4.13;;;8.50;99.90;;;;;;4162502;28;20073;-48
2021/11/24 09:40:50;;;;;;;5.10;4.72;;;8.60;99.90;;;;;;4158143;28;20064;-48
2021/11/24 09:42:59;;;;;;;3.80;3.60;;;8.90;99.90;;;;;;4164488;28;20049;-48
2021/11/24 09:45:15;;;;;;;8.80;8.05;;;9.00;99.90;;;;;;4163560;28;20034;-49
2021/11/24 09:47:19;;;;;;;2.63;2.42;;;9.10;99.90;;;;;;4164117;28;20044;-47
2021/11/24 09:49:21;;;;;;;2.38;2.28;;;9.50;99.90;;;;;;4162263;28;20568;-48
2021/11/24 09:51:45;;;;;;;3.90;3.58;;;9.60;99.90;;;;;;4163476;28;20033;-48
2021/11/24 09:53:48;;;;;;;2.13;2.03;;;9.90;99.90;;;;;;4161819;28;20045;-47
2021/11/24 09:55:52;;;;;;;1.83;1.80;;;10.20;99.90;;;;;;4164134;28;20041;-48
2021/11/24 09:57:56;;;;;;;3.53;2.53;;;10.40;99.90;;;;;;4162879;28;20141;-48
2021/11/24 09:59:59;;;;;;;2.08;2.03;;;10.40;99.90;;;;;;4164333;28;20044;-48
2021/11/24 10:02:01;;;;;;;2.97;2.78;;;10.20;99.90;;;;;;4162211;28;20033;-48
2021/11/24 10:04:07;;;;;;;3.28;3.08;;;10.20;99.90;;;;;;4164020;28;20049;-47
2021/11/24 10:06:09;;;;;;;2.40;2.30;;;10.20;99.90;;;;;;4160637;28;20784;-49
2021/11/24 10:08:32;;;;;;;3.70;3.40;;;10.30;99.90;;;;;;4160012;28;20040;-48
2021/11/24 10:10:35;;;;;;;4.30;4.20;;;10.40;99.90;;;;;;4161639;28;20283;-48
2021/11/24 10:12:37;;;;;;;3.50;3.40;;;10.40;99.90;;;;;;4162870;28;20042;-50
2021/11/24 10:14:41;;;;;;;8.02;7.43;;;10.50;99.90;;;;;;4162692;28;20041;-48
2021/11/24 10:16:44;;;;;;;2.83;2.63;;;10.60;99.90;;;;;;4163156;28;20524;-48
2021/11/24 10:19:00;;;;;;;1.65;1.65;;;10.70;99.90;;;;;;4160189;28;20041;-47
2021/11/24 10:21:09;;;;;;;3.53;3.38;;;11.00;99.90;;;;;;4163415;28;20120;-48
2021/11/24 10:23:36;;;;;;;3.65;3.45;;;11.10;99.90;;;;;;4161108;28;20094;-48
2021/11/24 10:25:38;;;;;;;1.65;1.65;;;11.10;99.90;;;;;;4163698;28;20497;-48
2021/11/24 10:27:44;;;;;;;6.43;6.13;;;11.30;99.90;;;;;;4160745;28;20041;-47
2021/11/24 10:29:55;;;;;;;5.25;5.00;;;11.50;99.90;;;;;;4163839;28;20381;-47
2021/11/24 10:32:06;;;;;;;2.88;2.78;;;11.60;99.90;;;;;;4160818;28;20065;-49
2021/11/24 10:34:12;;;;;;;1.70;1.60;;;11.60;99.90;;;;;;4162595;28;20522;-51
2021/11/24 10:36:14;;;;;;;1.58;1.48;;;11.70;99.90;;;;;;4160431;28;20045;-50
2021/11/24 10:38:18;;;;;;;2.15;1.38;;;11.90;99.90;;;;;;4165138;28;20095;-52
2021/11/24 10:40:21;;;;;;;1.50;1.45;;;12.10;99.90;;;;;;4162015;28;20038;-51
2021/11/24 10:42:33;;;;;;;1.83;1.20;;;12.30;99.90;;;;;;4153950;28;20046;-50
2021/11/24 10:44:36;;;;;;;1.10;1.10;;;12.20;99.90;;;;;;4159513;28;20057;-48
2021/11/24 10:46:38;;;;;;;;;;;12.40;99.90;;;;;;4163434;28;20037;-51
2021/11/24 10:48:41;;;;;;;1.35;1.35;;;12.30;99.90;;;;;;4160408;28;19921;-51